sensor_id;sensor_type;location;lat;lon;timestamp;pressure;altitude;pressure_sealevel;temperature;humidity
21706;BME280;11014;53.076;18.208;2024-01-15T00:01:46;98905.78;;;5.14;74.59
21706;BME280;11014;53.076;18.208;2024-01-15T00:04:15;98909.06;;;5.16;74.48
21706;BME280;11014;53.076;18.208;2024-01-15T00:06:44;98899.09;;;5.12;74.48
21706;BME280;11014;53.076;18.208;2024-01-15T00:09:12;98893.22;;;5.10;74.23
21706;BME280;11014;53.076;18.208;2024-01-15T00:11:42;98891.19;;;4.89;74.81
21706;BME280;11014;53.076;18.208;2024-01-15T00:14:10;98872.38;;;5.07;74.64
21706;BME280;11014;53.076;18.208;2024-01-15T00:16:40;98874.88;;;4.97;74.88
21706;BME280;11014;53.076;18.208;2024-01-15T00:19:09;98866.03;;;4.56;76.04
21706;BME280;11014;53.076;18.208;2024-01-15T00:21:37;98875.28;;;4.65;76.54
21706;BME280;11014;53.076;18.208;2024-01-15T00:24:06;98863.81;;;4.76;76.25
21706;BME280;11014;53.076;18.208;2024-01-15T00:26:35;98865.16;;;4.91;75.96
21706;BME280;11014;53.076;18.208;2024-01-15T00:29:03;98851.38;;;4.94;75.76
21706;BME280;11014;53.076;18.208;2024-01-15T00:31:32;98855.56;;;4.90;75.52
21706;BME280;11014;53.076;18.208;2024-01-15T00:34:01;98853.72;;;4.78;75.94
21706;BME280;11014;53.076;18.208;2024-01-15T00:36:30;98837.19;;;4.88;75.66
21706;BME280;11014;53.076;18.208;2024-01-15T00:38:59;98833.97;;;5.03;75.29
21706;BME280;11014;53.076;18.208;2024-01-15T00:41:28;98837.84;;;4.95;75.14
21706;BME280;11014;53.076;18.208;2024-01-15T00:43:57;98833.72;;;4.88;75.38
21706;BME280;11014;53.076;18.208;2024-01-15T00:46:25;98830.00;;;4.89;75.36
21706;BME280;11014;53.076;18.208;2024-01-15T00:48:54;98828.75;;;4.79;75.54
21706;BME280;11014;53.076;18.208;2024-01-15T00:51:23;98819.66;;;5.04;75.29
21706;BME280;11014;53.076;18.208;2024-01-15T00:53:51;98814.84;;;5.17;74.62
21706;BME280;11014;53.076;18.208;2024-01-15T00:56:20;98811.09;;;4.73;74.68
21706;BME280;11014;53.076;18.208;2024-01-15T00:58:48;98802.06;;;5.03;74.81
21706;BME280;11014;53.076;18.208;2024-01-15T01:01:17;98798.91;;;5.06;74.87
21706;BME280;11014;53.076;18.208;2024-01-15T01:03:46;98787.69;;;4.87;74.73
21706;BME280;11014;53.076;18.208;2024-01-15T01:06:14;98805.31;;;5.05;74.65
21706;BME280;11014;53.076;18.208;2024-01-15T01:08:43;98794.06;;;5.03;74.64
21706;BME280;11014;53.076;18.208;2024-01-15T01:11:15;98785.66;;;4.77;75.16
21706;BME280;11014;53.076;18.208;2024-01-15T01:13:44;98774.00;;;4.95;75.12
21706;BME280;11014;53.076;18.208;2024-01-15T01:16:13;98772.69;;;4.98;74.90
21706;BME280;11014;53.076;18.208;2024-01-15T01:18:41;98746.28;;;5.08;74.61
21706;BME280;11014;53.076;18.208;2024-01-15T01:21:11;98761.78;;;5.11;74.39
21706;BME280;11014;53.076;18.208;2024-01-15T01:23:39;98764.81;;;5.03;74.70
21706;BME280;11014;53.076;18.208;2024-01-15T01:26:08;98756.47;;;5.11;74.36
21706;BME280;11014;53.076;18.208;2024-01-15T01:28:36;98747.25;;;5.02;74.29
21706;BME280;11014;53.076;18.208;2024-01-15T01:31:05;98753.22;;;5.09;74.39
21706;BME280;11014;53.076;18.208;2024-01-15T01:33:33;98760.47;;;4.97;74.58
21706;BME280;11014;53.076;18.208;2024-01-15T01:36:07;98745.31;;;5.14;74.49
21706;BME280;11014;53.076;18.208;2024-01-15T01:38:40;98734.16;;;5.00;74.54
21706;BME280;11014;53.076;18.208;2024-01-15T01:41:09;98739.66;;;4.94;74.71
21706;BME280;11014;53.076;18.208;2024-01-15T01:43:38;98743.53;;;5.03;74.30
21706;BME280;11014;53.076;18.208;2024-01-15T01:46:07;98727.56;;;4.86;74.28
21706;BME280;11014;53.076;18.208;2024-01-15T01:48:36;98731.44;;;4.95;74.47
21706;BME280;11014;53.076;18.208;2024-01-15T01:51:05;98732.88;;;5.03;74.24
21706;BME280;11014;53.076;18.208;2024-01-15T01:53:34;98718.81;;;5.19;73.41
21706;BME280;11014;53.076;18.208;2024-01-15T01:56:04;98713.97;;;4.71;73.96
21706;BME280;11014;53.076;18.208;2024-01-15T01:58:33;98717.56;;;4.93;74.15
21706;BME280;11014;53.076;18.208;2024-01-15T02:01:04;98709.72;;;4.87;74.01
21706;BME280;11014;53.076;18.208;2024-01-15T02:03:33;98715.47;;;4.95;73.92
21706;BME280;11014;53.076;18.208;2024-01-15T02:06:02;98691.03;;;4.98;73.83
21706;BME280;11014;53.076;18.208;2024-01-15T02:08:31;98683.94;;;5.04;73.88
21706;BME280;11014;53.076;18.208;2024-01-15T02:11:00;98690.81;;;5.00;73.72
21706;BME280;11014;53.076;18.208;2024-01-15T02:13:29;98675.34;;;4.97;73.55
21706;BME280;11014;53.076;18.208;2024-01-15T02:15:58;98684.50;;;5.06;73.36
21706;BME280;11014;53.076;18.208;2024-01-15T02:18:26;98678.91;;;4.29;73.83
21706;BME280;11014;53.076;18.208;2024-01-15T02:20:55;98670.31;;;4.84;73.90
21706;BME280;11014;53.076;18.208;2024-01-15T02:23:24;98676.31;;;5.07;73.38
21706;BME280;11014;53.076;18.208;2024-01-15T02:25:53;98664.97;;;4.84;73.52
21706;BME280;11014;53.076;18.208;2024-01-15T02:28:40;98667.91;;;4.99;73.26
21706;BME280;11014;53.076;18.208;2024-01-15T02:31:09;98652.97;;;4.81;72.71
21706;BME280;11014;53.076;18.208;2024-01-15T02:33:38;98648.25;;;5.00;72.69
21706;BME280;11014;53.076;18.208;2024-01-15T02:36:07;98646.94;;;5.19;72.31
21706;BME280;11014;53.076;18.208;2024-01-15T02:38:36;98644.84;;;5.21;72.22
21706;BME280;11014;53.076;18.208;2024-01-15T02:41:05;98654.75;;;4.75;72.29
21706;BME280;11014;53.076;18.208;2024-01-15T02:43:33;98648.38;;;4.76;72.90
21706;BME280;11014;53.076;18.208;2024-01-15T02:46:02;98644.22;;;4.81;72.38
21706;BME280;11014;53.076;18.208;2024-01-15T02:48:31;98638.50;;;4.89;72.94
21706;BME280;11014;53.076;18.208;2024-01-15T02:51:00;98634.22;;;5.04;72.25
21706;BME280;11014;53.076;18.208;2024-01-15T02:53:28;98627.44;;;4.97;72.20
21706;BME280;11014;53.076;18.208;2024-01-15T02:55:57;98631.22;;;5.17;71.60
21706;BME280;11014;53.076;18.208;2024-01-15T02:58:25;98635.59;;;5.07;71.52
21706;BME280;11014;53.076;18.208;2024-01-15T03:00:54;98613.75;;;5.05;71.83
21706;BME280;11014;53.076;18.208;2024-01-15T03:03:22;98620.63;;;5.22;71.75
21706;BME280;11014;53.076;18.208;2024-01-15T03:05:51;98624.19;;;4.95;72.23
21706;BME280;11014;53.076;18.208;2024-01-15T03:08:21;98613.34;;;4.96;73.04
21706;BME280;11014;53.076;18.208;2024-01-15T03:10:51;98606.00;;;4.53;73.89
21706;BME280;11014;53.076;18.208;2024-01-15T03:13:19;98598.00;;;4.87;73.44
21706;BME280;11014;53.076;18.208;2024-01-15T03:15:48;98606.00;;;4.87;73.15
21706;BME280;11014;53.076;18.208;2024-01-15T03:18:17;98594.25;;;4.83;73.36
21706;BME280;11014;53.076;18.208;2024-01-15T03:20:46;98597.78;;;5.05;72.45
21706;BME280;11014;53.076;18.208;2024-01-15T03:23:14;98587.13;;;5.05;72.23
21706;BME280;11014;53.076;18.208;2024-01-15T03:25:43;98579.84;;;5.17;71.99
21706;BME280;11014;53.076;18.208;2024-01-15T03:28:12;98580.97;;;5.21;71.94
21706;BME280;11014;53.076;18.208;2024-01-15T03:30:41;98571.75;;;5.28;71.72
21706;BME280;11014;53.076;18.208;2024-01-15T03:33:10;98572.59;;;5.12;71.83
21706;BME280;11014;53.076;18.208;2024-01-15T03:35:39;98562.94;;;5.06;72.49
21706;BME280;11014;53.076;18.208;2024-01-15T03:38:07;98557.44;;;5.13;72.39
21706;BME280;11014;53.076;18.208;2024-01-15T03:40:36;98563.44;;;4.87;73.02
21706;BME280;11014;53.076;18.208;2024-01-15T03:43:05;98562.31;;;4.83;73.65
21706;BME280;11014;53.076;18.208;2024-01-15T03:45:34;98565.19;;;4.98;73.48
21706;BME280;11014;53.076;18.208;2024-01-15T03:48:03;98552.69;;;4.98;73.68
21706;BME280;11014;53.076;18.208;2024-01-15T03:50:31;98541.19;;;4.93;73.63
21706;BME280;11014;53.076;18.208;2024-01-15T03:53:00;98550.31;;;4.97;73.67
21706;BME280;11014;53.076;18.208;2024-01-15T03:55:29;98540.22;;;4.99;73.60
21706;BME280;11014;53.076;18.208;2024-01-15T03:57:57;98547.00;;;4.90;73.77
21706;BME280;11014;53.076;18.208;2024-01-15T04:00:26;98537.09;;;4.85;74.23
21706;BME280;11014;53.076;18.208;2024-01-15T04:02:54;98539.91;;;4.78;74.13
21706;BME280;11014;53.076;18.208;2024-01-15T04:05:23;98530.75;;;4.53;74.85
21706;BME280;11014;53.076;18.208;2024-01-15T04:07:52;98525.59;;;4.46;75.37
21706;BME280;11014;53.076;18.208;2024-01-15T04:10:21;98519.16;;;4.42;75.76
21706;BME280;11014;53.076;18.208;2024-01-15T04:12:49;98523.81;;;4.35;76.23
21706;BME280;11014;53.076;18.208;2024-01-15T04:15:18;98509.22;;;4.21;77.06
21706;BME280;11014;53.076;18.208;2024-01-15T04:17:47;98513.19;;;4.35;76.80
21706;BME280;11014;53.076;18.208;2024-01-15T04:20:16;98512.06;;;4.14;77.09
21706;BME280;11014;53.076;18.208;2024-01-15T04:22:44;98505.31;;;3.79;78.80
21706;BME280;11014;53.076;18.208;2024-01-15T04:25:13;98524.75;;;3.96;78.87
21706;BME280;11014;53.076;18.208;2024-01-15T04:27:41;98524.75;;;3.96;79.23
21706;BME280;11014;53.076;18.208;2024-01-15T04:30:10;98522.81;;;4.08;79.32
21706;BME280;11014;53.076;18.208;2024-01-15T04:32:39;98517.06;;;4.28;78.78
21706;BME280;11014;53.076;18.208;2024-01-15T04:35:08;98510.28;;;4.20;78.77
21706;BME280;11014;53.076;18.208;2024-01-15T04:37:37;98520.31;;;4.18;78.65
21706;BME280;11014;53.076;18.208;2024-01-15T04:40:07;98510.38;;;4.25;78.28
21706;BME280;11014;53.076;18.208;2024-01-15T04:42:35;98504.09;;;4.14;78.23
21706;BME280;11014;53.076;18.208;2024-01-15T04:45:04;98499.09;;;4.01;78.81
21706;BME280;11014;53.076;18.208;2024-01-15T04:47:33;98483.69;;;3.87;79.17
21706;BME280;11014;53.076;18.208;2024-01-15T04:50:03;98490.38;;;4.06;79.15
21706;BME280;11014;53.076;18.208;2024-01-15T04:52:32;98478.38;;;4.03;79.25
21706;BME280;11014;53.076;18.208;2024-01-15T04:55:01;98495.38;;;4.02;79.31
21706;BME280;11014;53.076;18.208;2024-01-15T04:57:29;98484.25;;;4.05;79.40
21706;BME280;11014;53.076;18.208;2024-01-15T04:59:58;98489.81;;;4.04;79.47
21706;BME280;11014;53.076;18.208;2024-01-15T05:02:27;98482.91;;;4.03;79.37
21706;BME280;11014;53.076;18.208;2024-01-15T05:05:01;98486.91;;;3.89;79.87
21706;BME280;11014;53.076;18.208;2024-01-15T05:07:30;98477.50;;;3.98;80.01
21706;BME280;11014;53.076;18.208;2024-01-15T05:09:59;98470.56;;;3.97;79.72
21706;BME280;11014;53.076;18.208;2024-01-15T05:12:28;98471.28;;;3.92;80.23
21706;BME280;11014;53.076;18.208;2024-01-15T05:14:57;98478.69;;;3.74;79.76
21706;BME280;11014;53.076;18.208;2024-01-15T05:17:25;98476.56;;;3.76;80.58
21706;BME280;11014;53.076;18.208;2024-01-15T05:19:54;98480.03;;;3.76;80.56
21706;BME280;11014;53.076;18.208;2024-01-15T05:22:23;98490.25;;;3.68;80.35
21706;BME280;11014;53.076;18.208;2024-01-15T05:24:53;98482.56;;;3.54;80.69
21706;BME280;11014;53.076;18.208;2024-01-15T05:27:22;98484.34;;;3.37;80.65
21706;BME280;11014;53.076;18.208;2024-01-15T05:29:51;98473.84;;;3.71;79.97
21706;BME280;11014;53.076;18.208;2024-01-15T05:32:19;98469.94;;;3.62;79.75
21706;BME280;11014;53.076;18.208;2024-01-15T05:34:48;98469.59;;;3.58;80.08
21706;BME280;11014;53.076;18.208;2024-01-15T05:37:43;98475.69;;;3.70;79.49
21706;BME280;11014;53.076;18.208;2024-01-15T05:40:12;98475.06;;;3.80;79.10
21706;BME280;11014;53.076;18.208;2024-01-15T05:42:41;98482.53;;;3.83;79.29
21706;BME280;11014;53.076;18.208;2024-01-15T05:45:10;98474.44;;;3.89;79.12
21706;BME280;11014;53.076;18.208;2024-01-15T05:47:38;98484.31;;;3.94;78.97
21706;BME280;11014;53.076;18.208;2024-01-15T05:50:08;98477.59;;;4.03;78.87
21706;BME280;11014;53.076;18.208;2024-01-15T05:52:36;98470.97;;;3.89;78.85
21706;BME280;11014;53.076;18.208;2024-01-15T05:55:05;98464.69;;;3.95;78.76
21706;BME280;11014;53.076;18.208;2024-01-15T05:57:33;98463.66;;;3.96;78.49
21706;BME280;11014;53.076;18.208;2024-01-15T06:00:03;98471.81;;;3.78;78.78
21706;BME280;11014;53.076;18.208;2024-01-15T06:02:33;98463.78;;;3.73;78.74
21706;BME280;11014;53.076;18.208;2024-01-15T06:05:01;98475.25;;;3.62;79.19
21706;BME280;11014;53.076;18.208;2024-01-15T06:07:31;98470.78;;;3.79;79.12
21706;BME280;11014;53.076;18.208;2024-01-15T06:10:00;98466.22;;;3.91;78.92
21706;BME280;11014;53.076;18.208;2024-01-15T06:12:28;98464.38;;;3.91;78.56
21706;BME280;11014;53.076;18.208;2024-01-15T06:14:57;98463.25;;;3.87;78.60
21706;BME280;11014;53.076;18.208;2024-01-15T06:17:25;98475.47;;;3.88;78.91
21706;BME280;11014;53.076;18.208;2024-01-15T06:19:55;98476.13;;;3.95;78.29
21706;BME280;11014;53.076;18.208;2024-01-15T06:22:25;98472.75;;;4.00;78.28
21706;BME280;11014;53.076;18.208;2024-01-15T06:24:54;98474.19;;;4.07;77.92
21706;BME280;11014;53.076;18.208;2024-01-15T06:27:23;98469.63;;;4.03;78.05
21706;BME280;11014;53.076;18.208;2024-01-15T06:29:52;98464.69;;;3.95;77.87
21706;BME280;11014;53.076;18.208;2024-01-15T06:32:20;98464.56;;;4.01;77.85
21706;BME280;11014;53.076;18.208;2024-01-15T06:34:50;98463.34;;;4.09;77.67
21706;BME280;11014;53.076;18.208;2024-01-15T06:37:19;98467.59;;;4.10;77.74
21706;BME280;11014;53.076;18.208;2024-01-15T06:39:48;98461.78;;;3.96;77.59
21706;BME280;11014;53.076;18.208;2024-01-15T06:42:17;98461.66;;;4.03;77.71
21706;BME280;11014;53.076;18.208;2024-01-15T06:44:46;98453.72;;;3.75;77.67
21706;BME280;11014;53.076;18.208;2024-01-15T06:47:14;98457.25;;;3.80;77.93
21706;BME280;11014;53.076;18.208;2024-01-15T06:49:43;98454.56;;;3.64;78.01
21706;BME280;11014;53.076;18.208;2024-01-15T06:52:11;98450.84;;;3.93;77.66
21706;BME280;11014;53.076;18.208;2024-01-15T06:54:41;98450.38;;;3.96;77.42
21706;BME280;11014;53.076;18.208;2024-01-15T06:57:09;98462.78;;;3.90;77.63
21706;BME280;11014;53.076;18.208;2024-01-15T06:59:38;98449.78;;;3.94;77.57
21706;BME280;11014;53.076;18.208;2024-01-15T07:02:06;98444.41;;;3.89;77.48
21706;BME280;11014;53.076;18.208;2024-01-15T07:04:35;98447.13;;;3.94;77.33
21706;BME280;11014;53.076;18.208;2024-01-15T07:07:04;98442.03;;;4.04;77.15
21706;BME280;11014;53.076;18.208;2024-01-15T07:09:33;98444.34;;;4.00;77.10
21706;BME280;11014;53.076;18.208;2024-01-15T07:12:02;98445.28;;;3.94;76.73
21706;BME280;11014;53.076;18.208;2024-01-15T07:14:30;98442.31;;;3.91;76.72
21706;BME280;11014;53.076;18.208;2024-01-15T07:16:59;98450.84;;;3.93;76.78
21706;BME280;11014;53.076;18.208;2024-01-15T07:19:27;98451.66;;;4.10;76.48
21706;BME280;11014;53.076;18.208;2024-01-15T07:21:56;98441.13;;;4.15;76.19
21706;BME280;11014;53.076;18.208;2024-01-15T07:24:25;98446.25;;;4.05;76.59
21706;BME280;11014;53.076;18.208;2024-01-15T07:26:53;98456.34;;;4.03;76.54
21706;BME280;11014;53.076;18.208;2024-01-15T07:29:22;98452.78;;;4.14;76.50
21706;BME280;11014;53.076;18.208;2024-01-15T07:31:51;98462.53;;;4.08;76.27
21706;BME280;11014;53.076;18.208;2024-01-15T07:34:20;98467.34;;;3.95;76.73
21706;BME280;11014;53.076;18.208;2024-01-15T07:36:48;98474.47;;;3.78;77.47
21706;BME280;11014;53.076;18.208;2024-01-15T07:39:18;98469.16;;;3.78;78.15
21706;BME280;11014;53.076;18.208;2024-01-15T07:41:46;98466.50;;;3.78;78.38
21706;BME280;11014;53.076;18.208;2024-01-15T07:44:15;98466.78;;;3.76;78.32
21706;BME280;11014;53.076;18.208;2024-01-15T07:46:45;98457.13;;;3.87;78.59
21706;BME280;11014;53.076;18.208;2024-01-15T07:49:14;98460.19;;;3.95;78.28
21706;BME280;11014;53.076;18.208;2024-01-15T07:51:42;98453.59;;;3.98;77.92
21706;BME280;11014;53.076;18.208;2024-01-15T07:54:14;98470.63;;;3.85;78.34
21706;BME280;11014;53.076;18.208;2024-01-15T07:57:00;98452.56;;;3.99;78.28
21706;BME280;11014;53.076;18.208;2024-01-15T07:59:29;98448.75;;;3.78;78.26
21706;BME280;11014;53.076;18.208;2024-01-15T08:01:59;98450.84;;;3.93;78.25
21706;BME280;11014;53.076;18.208;2024-01-15T08:04:28;98459.88;;;3.92;78.10
21706;BME280;11014;53.076;18.208;2024-01-15T08:06:57;98449.56;;;3.79;78.31
21706;BME280;11014;53.076;18.208;2024-01-15T08:09:25;98446.66;;;3.80;77.85
21706;BME280;11014;53.076;18.208;2024-01-15T08:11:54;98446.34;;;3.77;78.17
21706;BME280;11014;53.076;18.208;2024-01-15T08:14:22;98445.56;;;4.09;77.48
21706;BME280;11014;53.076;18.208;2024-01-15T08:16:51;98433.31;;;4.08;77.18
21706;BME280;11014;53.076;18.208;2024-01-15T08:19:21;98441.13;;;4.15;77.20
21706;BME280;11014;53.076;18.208;2024-01-15T08:21:50;98454.91;;;4.12;76.89
21706;BME280;11014;53.076;18.208;2024-01-15T08:24:18;98441.19;;;3.87;77.07
21706;BME280;11014;53.076;18.208;2024-01-15T08:26:47;98434.47;;;4.12;76.68
21706;BME280;11014;53.076;18.208;2024-01-15T08:29:16;98436.06;;;4.13;76.57
21706;BME280;11014;53.076;18.208;2024-01-15T08:31:47;98431.63;;;4.02;76.49
21706;BME280;11014;53.076;18.208;2024-01-15T08:34:15;98439.44;;;4.09;76.44
21706;BME280;11014;53.076;18.208;2024-01-15T08:36:44;98433.31;;;4.08;76.39
21706;BME280;11014;53.076;18.208;2024-01-15T08:39:12;98431.13;;;4.05;76.38
21706;BME280;11014;53.076;18.208;2024-01-15T08:41:41;98428.00;;;4.25;76.18
21706;BME280;11014;53.076;18.208;2024-01-15T08:44:09;98443.28;;;4.35;75.64
21706;BME280;11014;53.076;18.208;2024-01-15T08:46:38;98441.69;;;4.17;75.23
21706;BME280;11014;53.076;18.208;2024-01-15T08:49:07;98440.88;;;4.00;75.61
21706;BME280;11014;53.076;18.208;2024-01-15T08:51:35;98444.69;;;4.21;75.45
21706;BME280;11014;53.076;18.208;2024-01-15T08:54:04;98433.31;;;4.25;75.01
21706;BME280;11014;53.076;18.208;2024-01-15T08:56:32;98441.28;;;4.25;74.42
21706;BME280;11014;53.076;18.208;2024-01-15T08:59:00;98443.94;;;4.25;74.33
21706;BME280;11014;53.076;18.208;2024-01-15T09:01:29;98424.44;;;4.36;74.30
21706;BME280;11014;53.076;18.208;2024-01-15T09:03:59;98425.00;;;4.38;73.61
21706;BME280;11014;53.076;18.208;2024-01-15T09:06:28;98438.44;;;4.48;73.52
21706;BME280;11014;53.076;18.208;2024-01-15T09:08:57;98419.13;;;4.36;74.00
21706;BME280;11014;53.076;18.208;2024-01-15T09:11:25;98439.66;;;4.24;74.29
21706;BME280;11014;53.076;18.208;2024-01-15T09:13:54;98428.78;;;4.42;74.41
21706;BME280;11014;53.076;18.208;2024-01-15T09:16:23;98435.56;;;4.33;74.49
21706;BME280;11014;53.076;18.208;2024-01-15T09:18:51;98423.97;;;4.39;74.39
21706;BME280;11014;53.076;18.208;2024-01-15T09:21:20;98430.03;;;4.56;74.02
21706;BME280;11014;53.076;18.208;2024-01-15T09:23:49;98428.78;;;4.42;73.58
21706;BME280;11014;53.076;18.208;2024-01-15T09:26:17;98430.69;;;4.63;73.43
21706;BME280;11014;53.076;18.208;2024-01-15T09:28:46;98417.78;;;4.72;73.35
21706;BME280;11014;53.076;18.208;2024-01-15T09:31:15;98422.34;;;4.38;73.20
21706;BME280;11014;53.076;18.208;2024-01-15T09:33:45;98409.31;;;4.37;73.38
21706;BME280;11014;53.076;18.208;2024-01-15T09:36:14;98421.38;;;4.44;73.17
21706;BME280;11014;53.076;18.208;2024-01-15T09:38:43;98395.75;;;4.38;72.81
21706;BME280;11014;53.076;18.208;2024-01-15T09:41:12;98414.44;;;4.43;73.27
21706;BME280;11014;53.076;18.208;2024-01-15T09:43:40;98401.50;;;3.97;73.24
21706;BME280;11014;53.076;18.208;2024-01-15T09:46:09;98399.75;;;4.57;72.79
21706;BME280;11014;53.076;18.208;2024-01-15T09:48:38;98385.78;;;4.45;72.87
21706;BME280;11014;53.076;18.208;2024-01-15T09:51:07;98389.81;;;4.69;72.65
21706;BME280;11014;53.076;18.208;2024-01-15T09:53:36;98392.34;;;4.59;72.59
21706;BME280;11014;53.076;18.208;2024-01-15T09:56:06;98394.56;;;4.29;72.62
21706;BME280;11014;53.076;18.208;2024-01-15T09:58:34;98386.19;;;4.37;75.06
21706;BME280;11014;53.076;18.208;2024-01-15T10:01:03;98385.41;;;4.37;76.16
21706;BME280;11014;53.076;18.208;2024-01-15T10:03:35;98382.47;;;4.38;76.58
21706;BME280;11014;53.076;18.208;2024-01-15T10:06:05;98398.16;;;4.01;76.87
21706;BME280;11014;53.076;18.208;2024-01-15T10:08:36;98386.13;;;4.15;77.44
21706;BME280;11014;53.076;18.208;2024-01-15T10:11:05;98383.72;;;4.14;77.99
21706;BME280;11014;53.076;18.208;2024-01-15T10:13:34;98396.44;;;4.29;78.47
21706;BME280;11014;53.076;18.208;2024-01-15T10:16:04;98402.50;;;4.46;77.99
21706;BME280;11014;53.076;18.208;2024-01-15T10:18:38;98405.78;;;4.31;77.40
21706;BME280;11014;53.076;18.208;2024-01-15T10:21:09;98412.22;;;4.02;77.05
21706;BME280;11014;53.076;18.208;2024-01-15T10:23:41;98405.06;;;4.19;76.84
21706;BME280;11014;53.076;18.208;2024-01-15T10:26:10;98411.72;;;4.22;76.41
21706;BME280;11014;53.076;18.208;2024-01-15T10:28:44;98415.31;;;4.49;75.84
21706;BME280;11014;53.076;18.208;2024-01-15T10:31:13;98417.16;;;4.48;75.26
21706;BME280;11014;53.076;18.208;2024-01-15T10:33:42;98422.78;;;4.68;74.81
21706;BME280;11014;53.076;18.208;2024-01-15T10:36:11;98412.06;;;4.63;74.21
21706;BME280;11014;53.076;18.208;2024-01-15T10:38:42;98402.06;;;4.70;73.48
21706;BME280;11014;53.076;18.208;2024-01-15T10:41:11;98409.41;;;4.63;73.30
21706;BME280;11014;53.076;18.208;2024-01-15T10:43:39;98413.38;;;4.83;73.21
21706;BME280;11014;53.076;18.208;2024-01-15T10:46:09;98400.53;;;4.74;73.16
21706;BME280;11014;53.076;18.208;2024-01-15T10:48:39;98407.75;;;4.79;73.07
21706;BME280;11014;53.076;18.208;2024-01-15T10:51:08;98409.78;;;4.50;72.97
21706;BME280;11014;53.076;18.208;2024-01-15T10:53:39;98445.66;;;4.69;72.74
21706;BME280;11014;53.076;18.208;2024-01-15T10:56:10;98415.84;;;4.67;71.84
21706;BME280;11014;53.076;18.208;2024-01-15T10:58:39;98393.84;;;4.94;72.27
21706;BME280;11014;53.076;18.208;2024-01-15T11:01:10;98391.72;;;4.96;71.48
21706;BME280;11014;53.076;18.208;2024-01-15T11:03:40;98401.19;;;4.87;71.45
21706;BME280;11014;53.076;18.208;2024-01-15T11:06:19;98388.69;;;4.87;71.18
21706;BME280;11014;53.076;18.208;2024-01-15T11:08:52;98409.66;;;4.84;71.27
21706;BME280;11014;53.076;18.208;2024-01-15T11:11:21;98396.81;;;4.97;71.15
21706;BME280;11014;53.076;18.208;2024-01-15T11:13:50;98397.47;;;5.09;71.93
21706;BME280;11014;53.076;18.208;2024-01-15T11:16:21;98381.09;;;4.96;71.83
21706;BME280;11014;53.076;18.208;2024-01-15T11:21:27;98373.50;;;4.83;72.51
21706;BME280;11014;53.076;18.208;2024-01-15T11:24:00;98379.19;;;4.69;72.21
21706;BME280;11014;53.076;18.208;2024-01-15T11:26:37;98369.69;;;4.57;72.13
21706;BME280;11014;53.076;18.208;2024-01-15T11:29:29;98365.19;;;4.57;71.21
21706;BME280;11014;53.076;18.208;2024-01-15T11:32:05;98362.53;;;4.79;70.58
21706;BME280;11014;53.076;18.208;2024-01-15T11:34:57;98354.00;;;4.99;70.05
21706;BME280;11014;53.076;18.208;2024-01-15T11:37:29;98360.38;;;4.98;69.22
21706;BME280;11014;53.076;18.208;2024-01-15T11:41:15;98348.09;;;5.45;68.87
21706;BME280;11014;53.076;18.208;2024-01-15T11:43:44;98377.72;;;5.27;69.02
21706;BME280;11014;53.076;18.208;2024-01-15T11:46:13;98377.72;;;5.54;68.10
21706;BME280;11014;53.076;18.208;2024-01-15T11:48:44;98364.63;;;6.11;65.64
21706;BME280;11014;53.076;18.208;2024-01-15T11:51:16;98361.66;;;7.11;64.11
21706;BME280;11014;53.076;18.208;2024-01-15T11:53:48;98359.16;;;6.84;60.82
21706;BME280;11014;53.076;18.208;2024-01-15T11:56:18;98358.56;;;6.67;61.43
21706;BME280;11014;53.076;18.208;2024-01-15T11:58:50;98390.72;;;6.04;61.31
21706;BME280;11014;53.076;18.208;2024-01-15T12:01:21;98363.44;;;5.91;61.96
21706;BME280;11014;53.076;18.208;2024-01-15T12:03:50;98379.72;;;5.95;62.84
21706;BME280;11014;53.076;18.208;2024-01-15T12:06:18;98370.16;;;5.72;62.65
21706;BME280;11014;53.076;18.208;2024-01-15T12:08:47;98380.34;;;5.49;62.40
21706;BME280;11014;53.076;18.208;2024-01-15T12:11:19;98380.44;;;5.59;63.27
21706;BME280;11014;53.076;18.208;2024-01-15T12:13:48;98384.66;;;5.28;62.92
21706;BME280;11014;53.076;18.208;2024-01-15T12:16:17;98374.78;;;5.82;63.83
21706;BME280;11014;53.076;18.208;2024-01-15T12:18:46;98379.50;;;6.95;63.88
21706;BME280;11014;53.076;18.208;2024-01-15T12:21:15;98391.91;;;7.42;62.84
21706;BME280;11014;53.076;18.208;2024-01-15T12:23:46;98379.41;;;7.67;61.89
21706;BME280;11014;53.076;18.208;2024-01-15T12:26:14;98381.28;;;8.43;60.04
21706;BME280;11014;53.076;18.208;2024-01-15T12:28:45;98380.94;;;8.64;58.03
21706;BME280;11014;53.076;18.208;2024-01-15T12:31:15;98388.78;;;8.41;57.00
21706;BME280;11014;53.076;18.208;2024-01-15T12:33:44;98381.72;;;8.75;56.72
21706;BME280;11014;53.076;18.208;2024-01-15T12:36:13;98393.53;;;8.64;55.89
21706;BME280;11014;53.076;18.208;2024-01-15T12:38:41;98391.84;;;8.93;56.08
21706;BME280;11014;53.076;18.208;2024-01-15T12:41:10;98400.72;;;9.42;52.68
21706;BME280;11014;53.076;18.208;2024-01-15T12:43:38;98383.25;;;9.50;53.07
21706;BME280;11014;53.076;18.208;2024-01-15T12:46:08;98385.94;;;9.01;53.01
21706;BME280;11014;53.076;18.208;2024-01-15T12:48:37;98386.47;;;8.98;53.76
21706;BME280;11014;53.076;18.208;2024-01-15T12:51:06;98386.53;;;8.78;54.11
21706;BME280;11014;53.076;18.208;2024-01-15T12:53:35;98395.22;;;8.29;53.36
21706;BME280;11014;53.076;18.208;2024-01-15T12:56:04;98395.72;;;8.47;52.92
21706;BME280;11014;53.076;18.208;2024-01-15T12:58:32;98411.22;;;8.40;51.87
21706;BME280;11014;53.076;18.208;2024-01-15T13:01:01;98399.19;;;8.02;52.70
21706;BME280;11014;53.076;18.208;2024-01-15T13:03:30;98400.44;;;7.29;53.83
21706;BME280;11014;53.076;18.208;2024-01-15T13:05:58;98402.91;;;6.83;54.32
21706;BME280;11014;53.076;18.208;2024-01-15T13:08:27;98404.53;;;6.84;54.59
21706;BME280;11014;53.076;18.208;2024-01-15T13:10:58;98396.50;;;6.79;55.03
21706;BME280;11014;53.076;18.208;2024-01-15T13:13:26;98395.91;;;6.72;55.10
21706;BME280;11014;53.076;18.208;2024-01-15T13:15:55;98405.50;;;6.68;54.33